sensor_id;sensor_type;location;lat;lon;timestamp;P1;durP1;ratioP1;P2;durP2;ratioP2
48034;SDS011;33812;46.480;6.834;2023-03-04T00:00:54;12.18;;;7.18;;
48034;SDS011;33812;46.480;6.834;2023-03-04T00:04:57;18.63;;;8.90;;
48034;SDS011;33812;46.480;6.834;2023-03-04T00:08:59;14.10;;;8.00;;
48034;SDS011;33812;46.480;6.834;2023-03-04T00:13:02;15.88;;;7.80;;
48034;SDS011;33812;46.480;6.834;2023-03-04T00:17:05;17.55;;;8.25;;
48034;SDS011;33812;46.480;6.834;2023-03-04T00:21:08;16.27;;;8.13;;
48034;SDS011;33812;46.480;6.834;2023-03-04T00:25:10;16.17;;;8.65;;
48034;SDS011;33812;46.480;6.834;2023-03-04T00:29:12;16.55;;;8.32;;
48034;SDS011;33812;46.480;6.834;2023-03-04T00:33:14;18.08;;;8.60;;
48034;SDS011;33812;46.480;6.834;2023-03-04T00:37:17;16.23;;;8.63;;
48034;SDS011;33812;46.480;6.834;2023-03-04T00:41:18;16.88;;;7.82;;
48034;SDS011;33812;46.480;6.834;2023-03-04T00:45:20;15.27;;;8.02;;
48034;SDS011;33812;46.480;6.834;2023-03-04T00:49:22;14.77;;;8.30;;
48034;SDS011;33812;46.480;6.834;2023-03-04T00:53:25;14.80;;;8.27;;
48034;SDS011;33812;46.480;6.834;2023-03-04T00:57:27;16.60;;;8.15;;
48034;SDS011;33812;46.480;6.834;2023-03-04T01:01:28;13.38;;;7.72;;
48034;SDS011;33812;46.480;6.834;2023-03-04T01:05:30;22.27;;;9.88;;
48034;SDS011;33812;46.480;6.834;2023-03-04T01:09:34;21.52;;;9.52;;
48034;SDS011;33812;46.480;6.834;2023-03-04T01:13:36;17.20;;;8.43;;
48034;SDS011;33812;46.480;6.834;2023-03-04T01:17:38;15.55;;;8.00;;
48034;SDS011;33812;46.480;6.834;2023-03-04T01:21:40;19.25;;;8.27;;
48034;SDS011;33812;46.480;6.834;2023-03-04T01:25:43;20.40;;;8.70;;
48034;SDS011;33812;46.480;6.834;2023-03-04T01:29:45;15.70;;;7.53;;
48034;SDS011;33812;46.480;6.834;2023-03-04T01:33:47;14.52;;;7.82;;
48034;SDS011;33812;46.480;6.834;2023-03-04T01:37:49;14.65;;;7.30;;
48034;SDS011;33812;46.480;6.834;2023-03-04T01:41:52;13.95;;;8.20;;
48034;SDS011;33812;46.480;6.834;2023-03-04T01:45:54;13.73;;;7.65;;
48034;SDS011;33812;46.480;6.834;2023-03-04T01:49:57;16.52;;;8.60;;
48034;SDS011;33812;46.480;6.834;2023-03-04T01:54:02;13.50;;;8.15;;
48034;SDS011;33812;46.480;6.834;2023-03-04T01:58:08;18.88;;;7.97;;
48034;SDS011;33812;46.480;6.834;2023-03-04T02:02:10;17.13;;;8.63;;
48034;SDS011;33812;46.480;6.834;2023-03-04T02:06:13;13.52;;;7.63;;
48034;SDS011;33812;46.480;6.834;2023-03-04T02:10:16;13.18;;;7.63;;
48034;SDS011;33812;46.480;6.834;2023-03-04T02:14:20;13.13;;;7.07;;
48034;SDS011;33812;46.480;6.834;2023-03-04T02:18:22;13.18;;;7.55;;
48034;SDS011;33812;46.480;6.834;2023-03-04T02:22:25;13.23;;;8.50;;
48034;SDS011;33812;46.480;6.834;2023-03-04T02:26:28;15.60;;;8.82;;
48034;SDS011;33812;46.480;6.834;2023-03-04T02:30:32;17.85;;;9.07;;
48034;SDS011;33812;46.480;6.834;2023-03-04T02:34:34;17.33;;;8.73;;
48034;SDS011;33812;46.480;6.834;2023-03-04T02:38:36;15.48;;;7.82;;
48034;SDS011;33812;46.480;6.834;2023-03-04T02:42:41;10.95;;;7.43;;
48034;SDS011;33812;46.480;6.834;2023-03-04T02:46:44;15.73;;;7.55;;
48034;SDS011;33812;46.480;6.834;2023-03-04T02:50:47;18.13;;;8.52;;
48034;SDS011;33812;46.480;6.834;2023-03-04T02:54:51;14.82;;;7.47;;
48034;SDS011;33812;46.480;6.834;2023-03-04T02:58:54;14.00;;;7.50;;
48034;SDS011;33812;46.480;6.834;2023-03-04T03:02:56;17.75;;;8.48;;
48034;SDS011;33812;46.480;6.834;2023-03-04T03:06:58;15.93;;;8.75;;
48034;SDS011;33812;46.480;6.834;2023-03-04T03:10:59;22.13;;;9.25;;
48034;SDS011;33812;46.480;6.834;2023-03-04T03:15:03;15.13;;;8.23;;
48034;SDS011;33812;46.480;6.834;2023-03-04T03:19:05;14.60;;;8.30;;
48034;SDS011;33812;46.480;6.834;2023-03-04T03:23:07;15.50;;;7.80;;
48034;SDS011;33812;46.480;6.834;2023-03-04T03:27:09;17.40;;;8.60;;
48034;SDS011;33812;46.480;6.834;2023-03-04T03:31:12;24.40;;;9.15;;
48034;SDS011;33812;46.480;6.834;2023-03-04T03:35:14;18.77;;;9.55;;
48034;SDS011;33812;46.480;6.834;2023-03-04T03:39:16;15.30;;;8.50;;
48034;SDS011;33812;46.480;6.834;2023-03-04T03:43:18;17.17;;;8.60;;
48034;SDS011;33812;46.480;6.834;2023-03-04T03:47:22;10.52;;;7.30;;
48034;SDS011;33812;46.480;6.834;2023-03-04T03:51:24;16.95;;;8.27;;
48034;SDS011;33812;46.480;6.834;2023-03-04T03:55:25;15.02;;;7.85;;
48034;SDS011;33812;46.480;6.834;2023-03-04T03:59:27;15.20;;;8.27;;
48034;SDS011;33812;46.480;6.834;2023-03-04T04:03:31;14.38;;;7.63;;
48034;SDS011;33812;46.480;6.834;2023-03-04T04:07:33;16.17;;;7.57;;
48034;SDS011;33812;46.480;6.834;2023-03-04T04:11:35;13.63;;;7.65;;
48034;SDS011;33812;46.480;6.834;2023-03-04T04:15:37;14.18;;;8.02;;
48034;SDS011;33812;46.480;6.834;2023-03-04T04:19:41;16.95;;;8.30;;
48034;SDS011;33812;46.480;6.834;2023-03-04T04:23:43;14.15;;;7.78;;
48034;SDS011;33812;46.480;6.834;2023-03-04T04:27:44;14.60;;;7.25;;
48034;SDS011;33812;46.480;6.834;2023-03-04T04:31:46;18.48;;;8.25;;
48034;SDS011;33812;46.480;6.834;2023-03-04T04:35:49;16.13;;;7.93;;
48034;SDS011;33812;46.480;6.834;2023-03-04T04:39:51;14.55;;;7.75;;
48034;SDS011;33812;46.480;6.834;2023-03-04T04:43:54;16.00;;;8.48;;
48034;SDS011;33812;46.480;6.834;2023-03-04T04:47:56;13.80;;;7.53;;
48034;SDS011;33812;46.480;6.834;2023-03-04T04:51:59;15.57;;;7.53;;
48034;SDS011;33812;46.480;6.834;2023-03-04T04:56:06;20.55;;;8.55;;
48034;SDS011;33812;46.480;6.834;2023-03-04T05:00:10;12.93;;;7.35;;
48034;SDS011;33812;46.480;6.834;2023-03-04T05:04:12;14.75;;;7.55;;
48034;SDS011;33812;46.480;6.834;2023-03-04T05:08:16;15.75;;;7.65;;
48034;SDS011;33812;46.480;6.834;2023-03-04T05:12:18;14.70;;;7.05;;
48034;SDS011;33812;46.480;6.834;2023-03-04T05:16:19;19.75;;;8.63;;
48034;SDS011;33812;46.480;6.834;2023-03-04T05:20:21;12.25;;;7.25;;
48034;SDS011;33812;46.480;6.834;2023-03-04T05:24:24;10.65;;;7.03;;
48034;SDS011;33812;46.480;6.834;2023-03-04T05:28:26;11.13;;;7.65;;
48034;SDS011;33812;46.480;6.834;2023-03-04T05:32:28;11.18;;;7.18;;
48034;SDS011;33812;46.480;6.834;2023-03-04T05:36:30;19.27;;;8.27;;
48034;SDS011;33812;46.480;6.834;2023-03-04T05:40:34;14.18;;;7.60;;
48034;SDS011;33812;46.480;6.834;2023-03-04T05:44:37;14.18;;;8.60;;
48034;SDS011;33812;46.480;6.834;2023-03-04T05:48:39;13.43;;;8.30;;
48034;SDS011;33812;46.480;6.834;2023-03-04T05:52:41;11.73;;;7.57;;
48034;SDS011;33812;46.480;6.834;2023-03-04T05:56:45;11.38;;;7.38;;
48034;SDS011;33812;46.480;6.834;2023-03-04T06:00:47;12.27;;;7.43;;
48034;SDS011;33812;46.480;6.834;2023-03-04T06:04:48;9.38;;;6.78;;
48034;SDS011;33812;46.480;6.834;2023-03-04T06:08:50;9.95;;;7.30;;
48034;SDS011;33812;46.480;6.834;2023-03-04T06:12:53;8.63;;;7.03;;
48034;SDS011;33812;46.480;6.834;2023-03-04T06:16:55;11.27;;;7.22;;
48034;SDS011;33812;46.480;6.834;2023-03-04T06:20:57;14.57;;;8.15;;
48034;SDS011;33812;46.480;6.834;2023-03-04T06:25:00;11.20;;;7.45;;
48034;SDS011;33812;46.480;6.834;2023-03-04T06:29:04;10.88;;;7.28;;
48034;SDS011;33812;46.480;6.834;2023-03-04T06:33:06;9.30;;;6.68;;
48034;SDS011;33812;46.480;6.834;2023-03-04T06:37:08;13.00;;;7.70;;
48034;SDS011;33812;46.480;6.834;2023-03-04T06:41:10;12.07;;;6.93;;
48034;SDS011;33812;46.480;6.834;2023-03-04T06:45:15;12.38;;;6.97;;
48034;SDS011;33812;46.480;6.834;2023-03-04T06:49:16;24.67;;;17.10;;
48034;SDS011;33812;46.480;6.834;2023-03-04T06:53:18;15.05;;;9.25;;
48034;SDS011;33812;46.480;6.834;2023-03-04T06:57:20;15.60;;;8.73;;
48034;SDS011;33812;46.480;6.834;2023-03-04T07:01:23;33.67;;;11.45;;
48034;SDS011;33812;46.480;6.834;2023-03-04T07:05:26;17.50;;;7.90;;
48034;SDS011;33812;46.480;6.834;2023-03-04T07:09:28;21.42;;;9.50;;
48034;SDS011;33812;46.480;6.834;2023-03-04T07:13:30;14.52;;;8.77;;
48034;SDS011;33812;46.480;6.834;2023-03-04T07:17:39;15.00;;;9.10;;
48034;SDS011;33812;46.480;6.834;2023-03-04T07:21:41;13.77;;;8.68;;
48034;SDS011;33812;46.480;6.834;2023-03-04T07:25:43;12.38;;;8.85;;
48034;SDS011;33812;46.480;6.834;2023-03-04T07:29:45;14.00;;;8.13;;
48034;SDS011;33812;46.480;6.834;2023-03-04T07:33:48;13.63;;;8.65;;
48034;SDS011;33812;46.480;6.834;2023-03-04T07:37:50;16.95;;;12.00;;
48034;SDS011;33812;46.480;6.834;2023-03-04T07:41:52;28.70;;;12.55;;
48034;SDS011;33812;46.480;6.834;2023-03-04T07:45:57;16.58;;;10.32;;
48034;SDS011;33812;46.480;6.834;2023-03-04T07:50:01;13.98;;;10.30;;
48034;SDS011;33812;46.480;6.834;2023-03-04T07:54:03;19.33;;;10.70;;
48034;SDS011;33812;46.480;6.834;2023-03-04T07:58:06;19.80;;;11.70;;
48034;SDS011;33812;46.480;6.834;2023-03-04T08:02:09;23.40;;;9.10;;
48034;SDS011;33812;46.480;6.834;2023-03-04T08:06:13;38.15;;;12.40;;
48034;SDS011;33812;46.480;6.834;2023-03-04T08:10:17;34.47;;;11.45;;
48034;SDS011;33812;46.480;6.834;2023-03-04T08:14:19;34.22;;;11.13;;
48034;SDS011;33812;46.480;6.834;2023-03-04T08:18:23;39.88;;;10.52;;
48034;SDS011;33812;46.480;6.834;2023-03-04T08:22:26;36.83;;;10.07;;
48034;SDS011;33812;46.480;6.834;2023-03-04T08:26:29;41.67;;;10.18;;
48034;SDS011;33812;46.480;6.834;2023-03-04T08:30:33;25.60;;;10.85;;
48034;SDS011;33812;46.480;6.834;2023-03-04T08:34:37;16.40;;;8.07;;
48034;SDS011;33812;46.480;6.834;2023-03-04T08:38:41;28.90;;;9.20;;
48034;SDS011;33812;46.480;6.834;2023-03-04T08:42:42;19.30;;;8.73;;
48034;SDS011;33812;46.480;6.834;2023-03-04T08:46:44;20.40;;;9.05;;
48034;SDS011;33812;46.480;6.834;2023-03-04T08:50:47;23.55;;;8.25;;
48034;SDS011;33812;46.480;6.834;2023-03-04T08:54:52;20.13;;;7.15;;
48034;SDS011;33812;46.480;6.834;2023-03-04T08:58:57;17.02;;;8.43;;
48034;SDS011;33812;46.480;6.834;2023-03-04T09:02:59;20.92;;;8.23;;
48034;SDS011;33812;46.480;6.834;2023-03-04T09:07:01;19.77;;;8.60;;
48034;SDS011;33812;46.480;6.834;2023-03-04T09:11:04;18.70;;;8.02;;
48034;SDS011;33812;46.480;6.834;2023-03-04T09:15:06;17.50;;;8.00;;
48034;SDS011;33812;46.480;6.834;2023-03-04T09:19:08;19.27;;;8.30;;
48034;SDS011;33812;46.480;6.834;2023-03-04T09:23:10;14.43;;;7.40;;
48034;SDS011;33812;46.480;6.834;2023-03-04T09:27:14;24.58;;;9.23;;
48034;SDS011;33812;46.480;6.834;2023-03-04T09:31:16;14.60;;;7.70;;
48034;SDS011;33812;46.480;6.834;2023-03-04T09:35:18;13.93;;;7.15;;
48034;SDS011;33812;46.480;6.834;2023-03-04T09:39:20;15.13;;;8.20;;
48034;SDS011;33812;46.480;6.834;2023-03-04T09:43:24;12.40;;;7.07;;
48034;SDS011;33812;46.480;6.834;2023-03-04T09:47:29;18.13;;;7.15;;
48034;SDS011;33812;46.480;6.834;2023-03-04T09:51:39;11.85;;;6.55;;
48034;SDS011;33812;46.480;6.834;2023-03-04T09:55:46;12.25;;;7.78;;
48034;SDS011;33812;46.480;6.834;2023-03-04T09:59:54;13.52;;;7.72;;
48034;SDS011;33812;46.480;6.834;2023-03-04T10:04:09;11.68;;;7.28;;
48034;SDS011;33812;46.480;6.834;2023-03-04T10:08:30;17.65;;;6.95;;
48034;SDS011;33812;46.480;6.834;2023-03-04T10:12:42;11.73;;;7.13;;
48034;SDS011;33812;46.480;6.834;2023-03-04T10:16:50;19.38;;;7.90;;
48034;SDS011;33812;46.480;6.834;2023-03-04T10:20:55;13.32;;;8.18;;
48034;SDS011;33812;46.480;6.834;2023-03-04T10:25:09;17.67;;;8.57;;
48034;SDS011;33812;46.480;6.834;2023-03-04T10:29:18;25.95;;;8.50;;
48034;SDS011;33812;46.480;6.834;2023-03-04T10:33:24;15.98;;;7.68;;
48034;SDS011;33812;46.480;6.834;2023-03-04T10:37:41;31.83;;;9.05;;
48034;SDS011;33812;46.480;6.834;2023-03-04T10:41:44;19.10;;;7.85;;
48034;SDS011;33812;46.480;6.834;2023-03-04T10:45:55;18.38;;;7.45;;
48034;SDS011;33812;46.480;6.834;2023-03-04T10:50:00;14.13;;;7.50;;
48034;SDS011;33812;46.480;6.834;2023-03-04T10:54:04;16.17;;;6.47;;
48034;SDS011;33812;46.480;6.834;2023-03-04T10:58:15;18.30;;;7.78;;
48034;SDS011;33812;46.480;6.834;2023-03-04T11:02:19;15.77;;;7.03;;
48034;SDS011;33812;46.480;6.834;2023-03-04T11:06:24;14.40;;;7.20;;
48034;SDS011;33812;46.480;6.834;2023-03-04T11:10:28;28.58;;;8.75;;
48034;SDS011;33812;46.480;6.834;2023-03-04T11:14:33;20.40;;;7.75;;
48034;SDS011;33812;46.480;6.834;2023-03-04T11:18:39;25.20;;;7.88;;
48034;SDS011;33812;46.480;6.834;2023-03-04T11:22:45;19.85;;;8.43;;
48034;SDS011;33812;46.480;6.834;2023-03-04T11:26:47;15.85;;;7.15;;
48034;SDS011;33812;46.480;6.834;2023-03-04T11:30:53;13.18;;;6.80;;
48034;SDS011;33812;46.480;6.834;2023-03-04T11:35:00;17.25;;;6.97;;
48034;SDS011;33812;46.480;6.834;2023-03-04T11:39:13;14.73;;;7.07;;
48034;SDS011;33812;46.480;6.834;2023-03-04T11:43:21;13.93;;;6.38;;
48034;SDS011;33812;46.480;6.834;2023-03-04T11:47:32;11.57;;;6.55;;
48034;SDS011;33812;46.480;6.834;2023-03-04T11:51:56;14.38;;;6.85;;
48034;SDS011;33812;46.480;6.834;2023-03-04T12:00:33;14.48;;;7.35;;
48034;SDS011;33812;46.480;6.834;2023-03-04T12:04:49;12.75;;;6.82;;
48034;SDS011;33812;46.480;6.834;2023-03-04T12:09:12;10.05;;;6.57;;
48034;SDS011;33812;46.480;6.834;2023-03-04T12:13:34;8.70;;;6.63;;
48034;SDS011;33812;46.480;6.834;2023-03-04T12:17:49;18.25;;;7.40;;
48034;SDS011;33812;46.480;6.834;2023-03-04T12:22:09;10.45;;;6.43;;
48034;SDS011;33812;46.480;6.834;2023-03-04T12:26:28;15.68;;;6.63;;
48034;SDS011;33812;46.480;6.834;2023-03-04T12:30:43;9.85;;;5.65;;
48034;SDS011;33812;46.480;6.834;2023-03-04T12:34:59;10.13;;;6.03;;
48034;SDS011;33812;46.480;6.834;2023-03-04T12:39:20;13.60;;;6.90;;
48034;SDS011;33812;46.480;6.834;2023-03-04T12:43:35;24.02;;;8.35;;
48034;SDS011;33812;46.480;6.834;2023-03-04T12:47:47;20.13;;;8.75;;
48034;SDS011;33812;46.480;6.834;2023-03-04T12:52:05;17.38;;;7.13;;
48034;SDS011;33812;46.480;6.834;2023-03-04T12:56:18;9.43;;;6.20;;
48034;SDS011;33812;46.480;6.834;2023-03-04T13:00:27;9.75;;;6.35;;
48034;SDS011;33812;46.480;6.834;2023-03-04T13:04:46;16.15;;;7.72;;
48034;SDS011;33812;46.480;6.834;2023-03-04T13:08:56;21.13;;;11.20;;
48034;SDS011;33812;46.480;6.834;2023-03-04T13:13:25;43.10;;;15.55;;
48034;SDS011;33812;46.480;6.834;2023-03-04T13:35:01;34.78;;;17.67;;
48034;SDS011;33812;46.480;6.834;2023-03-04T13:52:55;31.98;;;14.07;;
48034;SDS011;33812;46.480;6.834;2023-03-04T13:57:10;18.35;;;10.15;;
48034;SDS011;33812;46.480;6.834;2023-03-04T14:01:22;26.40;;;12.68;;
48034;SDS011;33812;46.480;6.834;2023-03-04T14:05:26;28.63;;;13.40;;
48034;SDS011;33812;46.480;6.834;2023-03-04T14:09:30;25.80;;;13.40;;
48034;SDS011;33812;46.480;6.834;2023-03-04T14:13:34;31.40;;;18.08;;
48034;SDS011;33812;46.480;6.834;2023-03-04T14:17:36;27.90;;;13.45;;
48034;SDS011;33812;46.480;6.834;2023-03-04T14:21:42;24.40;;;13.45;;
48034;SDS011;33812;46.480;6.834;2023-03-04T14:25:47;29.60;;;16.40;;
48034;SDS011;33812;46.480;6.834;2023-03-04T14:29:54;23.85;;;12.95;;
48034;SDS011;33812;46.480;6.834;2023-03-04T14:33:57;29.33;;;14.13;;
48034;SDS011;33812;46.480;6.834;2023-03-04T14:38:02;30.25;;;14.13;;
48034;SDS011;33812;46.480;6.834;2023-03-04T14:42:08;39.65;;;16.60;;
48034;SDS011;33812;46.480;6.834;2023-03-04T14:46:19;24.98;;;14.27;;
48034;SDS011;33812;46.480;6.834;2023-03-04T14:50:26;27.25;;;11.10;;
48034;SDS011;33812;46.480;6.834;2023-03-04T14:54:32;34.08;;;13.95;;
48034;SDS011;33812;46.480;6.834;2023-03-04T14:58:52;45.22;;;18.70;;
48034;SDS011;33812;46.480;6.834;2023-03-04T15:02:58;22.05;;;10.50;;
48034;SDS011;33812;46.480;6.834;2023-03-04T15:07:03;24.20;;;12.45;;
48034;SDS011;33812;46.480;6.834;2023-03-04T15:11:05;25.75;;;13.13;;
48034;SDS011;33812;46.480;6.834;2023-03-04T15:19:36;26.15;;;11.05;;
48034;SDS011;33812;46.480;6.834;2023-03-04T15:23:38;23.65;;;10.13;;
48034;SDS011;33812;46.480;6.834;2023-03-04T15:27:40;27.17;;;10.52;;
48034;SDS011;33812;46.480;6.834;2023-03-04T15:31:44;42.47;;;12.32;;
48034;SDS011;33812;46.480;6.834;2023-03-04T15:35:52;30.67;;;15.38;;
48034;SDS011;33812;46.480;6.834;2023-03-04T15:39:58;22.83;;;12.63;;
48034;SDS011;33812;46.480;6.834;2023-03-04T15:44:02;25.92;;;12.88;;
48034;SDS011;33812;46.480;6.834;2023-03-04T15:48:05;24.50;;;11.52;;
48034;SDS011;33812;46.480;6.834;2023-03-04T15:52:10;22.02;;;13.40;;
48034;SDS011;33812;46.480;6.834;2023-03-04T15:56:24;23.70;;;10.57;;
48034;SDS011;33812;46.480;6.834;2023-03-04T16:00:28;27.33;;;14.85;;
48034;SDS011;33812;46.480;6.834;2023-03-04T16:04:41;31.55;;;17.83;;
48034;SDS011;33812;46.480;6.834;2023-03-04T16:08:43;30.20;;;13.90;;
48034;SDS011;33812;46.480;6.834;2023-03-04T16:12:46;23.63;;;10.60;;
48034;SDS011;33812;46.480;6.834;2023-03-04T16:17:02;34.10;;;16.08;;
48034;SDS011;33812;46.480;6.834;2023-03-04T16:21:05;21.52;;;11.00;;
48034;SDS011;33812;46.480;6.834;2023-03-04T16:25:12;17.52;;;8.75;;
48034;SDS011;33812;46.480;6.834;2023-03-04T16:29:16;14.50;;;7.30;;
48034;SDS011;33812;46.480;6.834;2023-03-04T16:33:18;23.17;;;8.85;;
48034;SDS011;33812;46.480;6.834;2023-03-04T16:37:21;15.60;;;7.28;;
48034;SDS011;33812;46.480;6.834;2023-03-04T16:41:26;17.95;;;6.68;;
48034;SDS011;33812;46.480;6.834;2023-03-04T16:45:29;11.77;;;5.47;;
48034;SDS011;33812;46.480;6.834;2023-03-04T16:49:31;17.02;;;6.50;;
48034;SDS011;33812;46.480;6.834;2023-03-04T16:53:36;16.17;;;5.00;;
48034;SDS011;33812;46.480;6.834;2023-03-04T16:57:40;10.77;;;5.55;;
48034;SDS011;33812;46.480;6.834;2023-03-04T17:01:47;12.88;;;5.22;;
48034;SDS011;33812;46.480;6.834;2023-03-04T17:05:58;14.25;;;5.03;;
48034;SDS011;33812;46.480;6.834;2023-03-04T17:10:01;30.45;;;7.70;;
48034;SDS011;33812;46.480;6.834;2023-03-04T17:14:02;8.07;;;4.65;;
48034;SDS011;33812;46.480;6.834;2023-03-04T17:18:04;21.15;;;5.63;;
48034;SDS011;33812;46.480;6.834;2023-03-04T17:22:06;19.85;;;5.25;;
48034;SDS011;33812;46.480;6.834;2023-03-04T17:26:09;13.55;;;5.45;;
48034;SDS011;33812;46.480;6.834;2023-03-04T17:30:12;11.77;;;5.07;;
48034;SDS011;33812;46.480;6.834;2023-03-04T17:34:20;15.40;;;5.00;;
48034;SDS011;33812;46.480;6.834;2023-03-04T17:38:21;15.10;;;4.93;;
48034;SDS011;33812;46.480;6.834;2023-03-04T17:42:24;9.75;;;4.50;;
48034;SDS011;33812;46.480;6.834;2023-03-04T17:46:26;27.15;;;5.78;;
48034;SDS011;33812;46.480;6.834;2023-03-04T17:50:29;13.57;;;5.30;;
48034;SDS011;33812;46.480;6.834;2023-03-04T17:54:31;17.52;;;5.65;;
48034;SDS011;33812;46.480;6.834;2023-03-04T17:58:36;15.70;;;5.57;;
48034;SDS011;33812;46.480;6.834;2023-03-04T18:02:38;18.70;;;5.07;;
48034;SDS011;33812;46.480;6.834;2023-03-04T18:06:40;14.23;;;5.35;;
48034;SDS011;33812;46.480;6.834;2023-03-04T18:10:42;14.20;;;5.30;;
48034;SDS011;33812;46.480;6.834;2023-03-04T18:14:45;15.70;;;5.53;;
48034;SDS011;33812;46.480;6.834;2023-03-04T18:18:47;14.55;;;5.28;;
48034;SDS011;33812;46.480;6.834;2023-03-04T18:22:49;12.10;;;5.60;;
48034;SDS011;33812;46.480;6.834;2023-03-04T18:26:50;11.95;;;6.18;;
48034;SDS011;33812;46.480;6.834;2023-03-04T18:30:59;18.40;;;7.40;;
48034;SDS011;33812;46.480;6.834;2023-03-04T18:35:01;23.33;;;6.97;;
48034;SDS011;33812;46.480;6.834;2023-03-04T18:39:03;15.70;;;6.32;;
48034;SDS011;33812;46.480;6.834;2023-03-04T18:43:06;12.50;;;6.10;;
48034;SDS011;33812;46.480;6.834;2023-03-04T18:47:09;14.05;;;5.78;;
48034;SDS011;33812;46.480;6.834;2023-03-04T18:51:12;9.85;;;5.97;;
48034;SDS011;33812;46.480;6.834;2023-03-04T18:55:14;16.02;;;6.82;;
48034;SDS011;33812;46.480;6.834;2023-03-04T18:59:18;18.10;;;7.13;;
48034;SDS011;33812;46.480;6.834;2023-03-04T19:07:25;11.02;;;6.22;;
48034;SDS011;33812;46.480;6.834;2023-03-04T19:11:27;8.25;;;4.78;;
48034;SDS011;33812;46.480;6.834;2023-03-04T19:15:30;14.07;;;4.97;;
48034;SDS011;33812;46.480;6.834;2023-03-04T19:19:33;11.50;;;5.18;;
48034;SDS011;33812;46.480;6.834;2023-03-04T19:23:35;14.65;;;5.93;;
48034;SDS011;33812;46.480;6.834;2023-03-04T19:27:37;11.27;;;5.40;;
48034;SDS011;33812;46.480;6.834;2023-03-04T19:31:40;28.15;;;13.23;;
48034;SDS011;33812;46.480;6.834;2023-03-04T19:39:53;28.60;;;14.55;;
48034;SDS011;33812;46.480;6.834;2023-03-04T19:43:55;38.65;;;13.95;;
48034;SDS011;33812;46.480;6.834;2023-03-04T19:47:58;21.33;;;10.35;;
48034;SDS011;33812;46.480;6.834;2023-03-04T19:52:05;16.13;;;10.10;;
48034;SDS011;33812;46.480;6.834;2023-03-04T19:56:07;21.70;;;8.80;;
48034;SDS011;33812;46.480;6.834;2023-03-04T20:00:09;25.42;;;8.18;;
48034;SDS011;33812;46.480;6.834;2023-03-04T20:04:18;18.42;;;6.72;;
48034;SDS011;33812;46.480;6.834;2023-03-04T20:08:22;26.08;;;7.03;;
48034;SDS011;33812;46.480;6.834;2023-03-04T20:12:23;17.30;;;6.97;;
48034;SDS011;33812;46.480;6.834;2023-03-04T20:16:28;22.05;;;7.13;;
48034;SDS011;33812;46.480;6.834;2023-03-04T20:20:40;23.25;;;7.38;;
48034;SDS011;33812;46.480;6.834;2023-03-04T20:24:43;16.10;;;6.30;;
48034;SDS011;33812;46.480;6.834;2023-03-04T20:28:46;21.50;;;7.10;;
48034;SDS011;33812;46.480;6.834;2023-03-04T20:32:55;16.08;;;6.45;;
48034;SDS011;33812;46.480;6.834;2023-03-04T20:36:56;16.13;;;5.72;;
48034;SDS011;33812;46.480;6.834;2023-03-04T20:41:00;11.40;;;5.82;;
48034;SDS011;33812;46.480;6.834;2023-03-04T20:45:03;11.70;;;5.90;;
48034;SDS011;33812;46.480;6.834;2023-03-04T20:49:07;15.18;;;5.82;;
48034;SDS011;33812;46.480;6.834;2023-03-04T20:57:13;16.02;;;7.32;;
48034;SDS011;33812;46.480;6.834;2023-03-04T21:01:15;15.25;;;6.57;;
48034;SDS011;33812;46.480;6.834;2023-03-04T21:05:17;14.77;;;6.25;;
48034;SDS011;33812;46.480;6.834;2023-03-04T21:09:20;18.45;;;7.38;;
48034;SDS011;33812;46.480;6.834;2023-03-04T21:13:23;16.30;;;6.57;;
48034;SDS011;33812;46.480;6.834;2023-03-04T21:17:29;12.90;;;6.63;;
48034;SDS011;33812;46.480;6.834;2023-03-04T21:21:32;11.07;;;5.82;;
48034;SDS011;33812;46.480;6.834;2023-03-04T21:25:33;15.30;;;5.97;;
48034;SDS011;33812;46.480;6.834;2023-03-04T21:29:38;15.60;;;6.78;;
48034;SDS011;33812;46.480;6.834;2023-03-04T21:33:48;14.93;;;6.32;;
48034;SDS011;33812;46.480;6.834;2023-03-04T21:37:50;9.98;;;5.45;;
48034;SDS011;33812;46.480;6.834;2023-03-04T21:42:04;9.75;;;5.28;;
48034;SDS011;33812;46.480;6.834;2023-03-04T21:46:17;16.13;;;6.38;;
48034;SDS011;33812;46.480;6.834;2023-03-04T21:50:19;12.85;;;6.20;;
48034;SDS011;33812;46.480;6.834;2023-03-04T21:54:21;10.38;;;5.50;;
48034;SDS011;33812;46.480;6.834;2023-03-04T21:58:23;15.00;;;5.85;;
48034;SDS011;33812;46.480;6.834;2023-03-04T22:02:27;8.45;;;4.70;;
48034;SDS011;33812;46.480;6.834;2023-03-04T22:06:29;13.43;;;5.63;;
48034;SDS011;33812;46.480;6.834;2023-03-04T22:10:35;13.82;;;5.57;;
48034;SDS011;33812;46.480;6.834;2023-03-04T22:14:37;27.50;;;5.60;;
48034;SDS011;33812;46.480;6.834;2023-03-04T22:18:41;9.35;;;5.35;;
48034;SDS011;33812;46.480;6.834;2023-03-04T22:26:46;17.30;;;7.05;;
48034;SDS011;33812;46.480;6.834;2023-03-04T22:30:49;18.27;;;6.55;;
48034;SDS011;33812;46.480;6.834;2023-03-04T22:34:52;22.60;;;7.97;;
48034;SDS011;33812;46.480;6.834;2023-03-04T22:38:54;16.17;;;6.22;;
48034;SDS011;33812;46.480;6.834;2023-03-04T22:42:57;12.38;;;5.68;;
48034;SDS011;33812;46.480;6.834;2023-03-04T22:46:58;20.80;;;7.30;;
48034;SDS011;33812;46.480;6.834;2023-03-04T22:51:10;9.82;;;4.88;;
48034;SDS011;33812;46.480;6.834;2023-03-04T22:55:13;16.63;;;5.75;;
48034;SDS011;33812;46.480;6.834;2023-03-04T22:59:15;14.43;;;5.70;;
48034;SDS011;33812;46.480;6.834;2023-03-04T23:03:19;10.57;;;5.18;;
48034;SDS011;33812;46.480;6.834;2023-03-04T23:07:22;13.73;;;5.83;;
48034;SDS011;33812;46.480;6.834;2023-03-04T23:11:26;14.05;;;6.05;;
48034;SDS011;33812;46.480;6.834;2023-03-04T23:15:32;15.07;;;6.75;;
48034;SDS011;33812;46.480;6.834;2023-03-04T23:19:34;11.40;;;5.40;;
48034;SDS011;33812;46.480;6.834;2023-03-04T23:23:37;13.23;;;5.50;;
48034;SDS011;33812;46.480;6.834;2023-03-04T23:27:46;9.70;;;5.68;;
48034;SDS011;33812;46.480;6.834;2023-03-04T23:31:48;14.63;;;6.10;;
48034;SDS011;33812;46.480;6.834;2023-03-04T23:35:56;14.00;;;6.00;;
48034;SDS011;33812;46.480;6.834;2023-03-04T23:39:59;13.63;;;5.60;;
48034;SDS011;33812;46.480;6.834;2023-03-04T23:44:02;11.40;;;5.53;;
48034;SDS011;33812;46.480;6.834;2023-03-04T23:48:04;12.10;;;5.55;;
48034;SDS011;33812;46.480;6.834;2023-03-04T23:52:07;12.57;;;5.60;;
48034;SDS011;33812;46.480;6.834;2023-03-04T23:56:11;15.73;;;6.10;;
